首页
METAR-TAF:

METAR-TAF

机场 :

中途国际机场

芝加哥, 伊利诺伊州, 美国

纬度: 41-47-03N, 经度: 087-45-19W, 海拔: 188米

当前天气观测

该预报发布于30分钟前的23:53 UTC
风速7节,风向
温度 3°C
湿度 60%
气压 1024 hPa
能見度: 16.1公里
多云层高于22000英尺

METAR: KMDW 072353Z 18007KT 10SM BKN220 03/M04 A3024 RMK AO2 SLP253 T00281039 10039 20017 56014

时间: 18:23 (00:23 UTC)

预报

该预报发布于1小时和3分钟前的23:20 UTC
预报有效从08日的 00点(UTC)到 09日的 06点(UTC)
风速12节,风向
能見度: 10公里
多云层高于25000英尺
从 08日的 0500点(UTC)
风速13节,风向南转西南
能見度: 10公里
散云层高于25000英尺
从 08日的 1200点(UTC)
风速14节,风向南转西南,有时为22节阵风
能見度: 10公里
散云层高于700英尺
阴天层高于1000英尺
从 08日的 1600点(UTC)
风速14节,风向南转西南,有时为22节阵风
能見度: 10公里
多云层高于2200英尺
从 08日的 2200点(UTC)
风速10节,风向南转西南
能見度: 10公里
阴天层高于1500英尺
从 09日的 0300点(UTC)
风速6节,风向南转西南
能見度: 8.0公里
阴天层高于700英尺
小毛毛雨, 雨, 轻雾

TAF: KMDW 072320Z 0800/0906 19012KT P6SM BKN250 FM080500 20013KT P6SM SCT250 WS015/22045KT FM081200 21014G22KT P6SM SCT007 OVC010 FM081600 21014G22KT P6SM BKN022 FM082200 21010KT P6SM OVC015 FM090300 20006KT 5SM -DZRA BR OVC007

超过4000个机场的气象观测和天气预报(METAR&TAF报告)。

可查询的气象台以黄色和红色小点在地图上表示。

将鼠标移到小点上方,可查看气象台名称。

然后点击查看天气观测和预报。

如需切换地图:点击带黑十字的绿色按钮放大地图;点击带横线的绿色按钮缩小地图;或者点击绿色箭头查看邻近地区的地图。


METAR-TAF: